Time;durP1;ratioP1;P1;durP2;ratioP2;P2;SDS_P1;SDS_P2;PMS_P1;PMS_P2;Temp;Humidity;BMP_temperature;BMP_pressure;BME280_temperature;BME280_humidity;BME280_pressure;Samples;Min_cycle;Max_cycle;Signal;HPM_P1;HPM_P2
2023/09/28 00:01:52;;;;;;;5.60;1.60;;;;;;;22.68;79.23;97832.13;4910342;29;20118;-86
2023/09/28 00:04:36;;;;;;;11.18;2.47;;;;;;;22.25;80.43;97827.19;4898027;29;20043;-86
2023/09/28 00:07:20;;;;;;;7.88;2.45;;;;;;;22.05;81.63;97831.91;4889378;29;20040;-86
2023/09/28 00:10:07;;;;;;;9.63;2.70;;;;;;;22.40;81.08;97834.88;4891269;29;20407;-86
2023/09/28 00:12:53;;;;;;;11.95;2.22;;;;;;;22.42;80.99;97828.44;4906002;29;20055;-88
2023/09/28 00:15:37;;;;;;;6.22;2.13;;;;;;;22.31;81.21;97831.34;4894942;29;20100;-88
2023/09/28 00:18:23;;;;;;;9.60;2.25;;;;;;;22.21;81.68;97839.59;4889345;29;20044;-87
2023/09/28 00:21:07;;;;;;;8.35;2.10;;;;;;;22.09;82.12;97838.22;4901515;29;20116;-86
2023/09/28 00:23:52;;;;;;;12.32;2.97;;;;;;;22.00;81.70;97852.59;4906541;29;20075;-86
2023/09/28 00:26:37;;;;;;;10.95;2.72;;;;;;;22.11;81.77;97862.75;4908181;29;20103;-87
2023/09/28 00:29:21;;;;;;;9.38;2.28;;;;;;;22.29;82.88;97868.25;4898498;29;20407;-86
2023/09/28 00:32:05;;;;;;;9.80;2.38;;;;;;;21.64;83.99;97854.06;4894109;29;20405;-87
2023/09/28 00:34:49;;;;;;;8.95;3.10;;;;;;;22.22;83.71;97883.94;4904843;29;20047;-86
2023/09/28 00:37:33;;;;;;;5.63;2.08;;;;;;;22.09;84.28;97866.81;4893253;29;20529;-88
2023/09/28 00:40:27;;;;;;;8.40;2.47;;;;;;;22.01;84.56;97868.31;4901149;29;20044;-86
2023/09/28 00:43:11;;;;;;;;;;;;;;;21.89;85.45;97876.03;4909019;29;20051;-86
2023/09/28 00:45:55;;;;;;;6.47;1.63;;;;;;;21.36;87.50;97878.06;4896301;29;19971;-85
2023/09/28 00:49:03;;;;;;;8.60;2.13;;;;;;;21.49;89.01;97898.66;4907526;29;20055;-86
2023/09/28 00:51:47;;;;;;;6.82;1.85;;;;;;;21.21;89.85;97890.56;4905352;29;20570;-86
2023/09/28 00:54:31;;;;;;;12.23;1.95;;;;;;;21.43;89.52;97912.38;4906465;29;20046;-84
2023/09/28 00:57:19;;;;;;;9.73;1.90;;;;;;;21.64;89.24;97926.16;4900928;29;20100;-87
2023/09/28 01:00:18;;;;;;;8.20;2.30;;;;;;;21.30;90.50;97924.63;4905175;29;20075;-86
2023/09/28 01:03:08;;;;;;;7.97;1.85;;;;;;;21.32;90.20;97931.25;4907691;29;20055;-88
2023/09/28 01:05:52;;;;;;;7.57;1.77;;;;;;;21.40;89.98;97951.91;4894861;29;20047;-84
2023/09/28 01:08:36;;;;;;;9.90;2.00;;;;;;;21.55;89.65;97950.09;4908617;29;20505;-86
2023/09/28 01:11:21;;;;;;;12.73;1.92;;;;;;;21.32;90.31;97965.13;4906248;29;20071;-86
2023/09/28 01:14:05;;;;;;;6.80;2.28;;;;;;;21.41;90.70;97958.03;4889912;29;20410;-86
2023/09/28 01:16:48;;;;;;;4.35;1.70;;;;;;;21.57;90.52;97947.09;4892370;29;20110;-85
2023/09/28 01:19:32;;;;;;;5.68;1.58;;;;;;;21.73;89.92;97969.81;4892487;29;20048;-85
2023/09/28 01:22:17;;;;;;;10.38;1.92;;;;;;;21.71;89.67;97955.97;4906423;29;20467;-86
2023/09/28 01:25:03;;;;;;;9.75;1.67;;;;;;;21.79;89.64;97968.63;4901902;29;20104;-86
2023/09/28 01:27:49;;;;;;;6.78;2.00;;;;;;;22.11;89.16;97966.19;4908823;29;20052;-86
2023/09/28 01:30:34;;;;;;;8.90;1.90;;;;;;;21.81;89.72;97963.81;4906771;29;20052;-88
2023/09/28 01:33:18;;;;;;;9.80;2.55;;;;;;;22.03;88.49;97975.69;4901825;29;20474;-86
2023/09/28 01:36:02;;;;;;;7.55;2.20;;;;;;;21.82;88.65;97956.56;4896359;29;20406;-87
2023/09/28 01:38:58;;;;;;;5.95;1.73;;;;;;;21.71;89.61;97958.63;4905260;29;20076;-85
2023/09/28 01:41:43;;;;;;;9.65;2.28;;;;;;;21.62;88.55;97939.78;4888665;29;20394;-89
2023/09/28 01:44:27;;;;;;;9.75;2.17;;;;;;;21.90;88.35;97979.13;4894259;29;20658;-88
2023/09/28 01:47:11;;;;;;;9.45;2.17;;;;;;;22.14;88.08;97986.16;4892088;29;20068;-87
2023/09/28 01:49:55;;;;;;;9.90;2.22;;;;;;;21.80;87.77;97948.84;4908697;29;20091;-88
2023/09/28 01:52:39;;;;;;;14.23;3.10;;;;;;;21.80;88.11;97980.13;4910618;29;20108;-86
2023/09/28 01:55:24;;;;;;;10.30;2.50;;;;;;;21.91;87.41;97975.38;4895346;29;20124;-87
2023/09/28 01:58:09;;;;;;;14.10;2.47;;;;;;;21.95;87.11;97976.38;4898890;29;20043;-87
2023/09/28 02:00:53;;;;;;;7.93;2.08;;;;;;;21.68;87.59;97991.28;4899758;29;20047;-88
2023/09/28 02:03:37;;;;;;;5.93;2.47;;;;;;;22.06;86.53;97988.47;4889537;29;20047;-89
2023/09/28 02:06:21;;;;;;;7.68;2.15;;;;;;;21.82;86.43;97989.44;4907696;29;20068;-86
2023/09/28 02:09:05;;;;;;;10.98;2.53;;;;;;;21.87;86.08;98001.09;4890389;29;20516;-86
2023/09/28 02:11:49;;;;;;;12.27;2.63;;;;;;;22.05;85.82;98010.91;4902696;29;20107;-85
2023/09/28 02:14:33;;;;;;;10.93;3.22;;;;;;;21.79;86.32;98029.28;4904168;29;20044;-86
2023/09/28 02:17:18;;;;;;;13.57;3.17;;;;;;;21.57;86.82;98001.31;4890815;29;20185;-86
2023/09/28 02:20:08;;;;;;;18.15;2.72;;;;;;;21.67;86.80;98037.75;4894538;29;20153;-87
2023/09/28 02:22:53;;;;;;;15.63;3.05;;;;;;;21.55;87.07;98030.19;4889772;29;20063;-86
2023/09/28 02:25:37;;;;;;;13.98;2.92;;;;;;;21.70;86.53;98018.47;4891427;29;20046;-86
2023/09/28 02:28:21;;;;;;;20.08;3.38;;;;;;;21.69;86.18;98022.22;4889082;29;20131;-87
2023/09/28 02:31:08;;;;;;;11.57;2.97;;;;;;;21.67;86.27;98027.84;4889759;29;20079;-86
2023/09/28 02:33:52;;;;;;;8.43;2.85;;;;;;;21.87;85.54;98038.50;4893813;29;20119;-88
2023/09/28 02:36:36;;;;;;;20.35;3.97;;;;;;;21.92;84.85;98051.75;4884224;29;20095;-87
2023/09/28 02:39:20;;;;;;;14.25;3.33;;;;;;;21.44;85.88;98039.44;4903167;29;20042;-87
2023/09/28 02:42:07;;;;;;;12.13;2.90;;;;;;;21.84;84.50;98045.22;4891496;29;20088;-84
2023/09/28 02:44:51;;;;;;;14.02;3.10;;;;;;;21.14;85.42;98046.81;4907022;29;20513;-85
2023/09/28 02:47:35;;;;;;;15.23;2.88;;;;;;;21.67;84.10;98045.78;4892299;29;20112;-86
2023/09/28 02:50:21;;;;;;;15.13;2.70;;;;;;;21.23;84.27;98043.22;4891785;29;20079;-86
2023/09/28 02:53:07;;;;;;;16.75;3.35;;;;;;;21.04;84.42;98031.75;4894760;29;20116;-86
2023/09/28 02:55:51;;;;;;;14.32;2.90;;;;;;;21.28;83.83;98058.34;4906074;29;20091;-85
2023/09/28 02:58:35;;;;;;;14.80;2.90;;;;;;;21.55;83.37;98063.00;4893332;29;20442;-84
2023/09/28 03:01:21;;;;;;;14.57;3.58;;;;;;;21.58;82.87;98039.47;4887258;29;20046;-88
2023/09/28 03:04:05;;;;;;;12.32;3.08;;;;;;;21.43;83.35;98057.34;4890624;29;20102;-87
2023/09/28 03:06:52;;;;;;;13.98;3.50;;;;;;;21.96;81.94;98074.13;4905435;29;20176;-88
2023/09/28 03:09:36;;;;;;;17.23;4.53;;;;;;;21.67;82.30;98083.16;4890287;29;20179;-86
2023/09/28 03:12:20;;;;;;;12.25;3.35;;;;;;;21.69;81.68;98097.00;4887736;29;20087;-86
2023/09/28 03:15:10;;;;;;;20.08;4.18;;;;;;;21.90;81.19;98091.34;4896776;29;20119;-87
2023/09/28 03:17:56;;;;;;;16.23;3.00;;;;;;;21.58;81.33;98085.66;4889865;29;20088;-87
2023/09/28 03:20:45;;;;;;;18.50;3.63;;;;;;;21.38;82.64;98108.09;4894196;29;20044;-86
2023/09/28 03:23:29;;;;;;;14.52;3.92;;;;;;;21.55;82.00;98127.06;4892967;29;20182;-87
2023/09/28 03:26:13;;;;;;;11.65;3.53;;;;;;;21.59;81.57;98113.13;4895298;29;20078;-86
2023/09/28 03:28:57;;;;;;;14.93;3.58;;;;;;;21.87;80.96;98132.78;4905465;29;20051;-86
2023/09/28 03:31:42;;;;;;;20.33;3.42;;;;;;;21.44;81.86;98127.50;4905483;29;20162;-86
2023/09/28 03:34:25;;;;;;;21.35;4.65;;;;;;;21.50;81.05;98132.50;4904945;29;20056;-85
2023/09/28 03:37:10;;;;;;;12.55;2.65;;;;;;;21.64;80.98;98155.81;4906273;29;20039;-87
2023/09/28 03:39:54;;;;;;;16.77;3.50;;;;;;;22.22;79.68;98156.56;4904533;29;20088;-87
2023/09/28 03:42:38;;;;;;;16.13;3.63;;;;;;;21.75;80.26;98133.22;4910202;29;20103;-87
2023/09/28 03:45:22;;;;;;;18.52;3.65;;;;;;;21.94;79.46;98138.56;4891220;29;20067;-88
2023/09/28 03:48:06;;;;;;;16.65;3.63;;;;;;;21.58;80.22;98132.91;4905342;29;20409;-86
2023/09/28 03:50:50;;;;;;;18.05;3.38;;;;;;;21.91;79.84;98173.06;4909805;29;20051;-87
2023/09/28 03:53:38;;;;;;;14.48;3.33;;;;;;;21.95;79.47;98163.38;4892350;29;20168;-87
2023/09/28 03:56:22;;;;;;;17.13;3.40;;;;;;;21.46;79.92;98152.84;4911578;29;20131;-88
2023/09/28 03:59:06;;;;;;;17.88;4.10;;;;;;;21.76;79.74;98156.19;4910206;29;20074;-86
2023/09/28 04:01:51;;;;;;;13.70;2.63;;;;;;;21.66;79.48;98162.47;4903452;29;20050;-87
2023/09/28 04:04:35;;;;;;;18.83;3.65;;;;;;;21.82;79.34;98168.41;4888144;29;20092;-88
2023/09/28 04:07:19;;;;;;;17.75;3.40;;;;;;;21.59;79.22;98151.34;4904671;29;20173;-87
2023/09/28 04:10:04;;;;;;;16.23;3.53;;;;;;;22.16;78.20;98187.09;4892937;29;20603;-87
2023/09/28 04:12:48;;;;;;;19.33;4.15;;;;;;;21.74;78.52;98194.97;4896247;29;20074;-86
2023/09/28 04:15:32;;;;;;;16.55;3.35;;;;;;;22.11;77.64;98172.75;4898661;29;20051;-87
2023/09/28 04:18:16;;;;;;;20.48;3.88;;;;;;;22.13;77.24;98185.00;4909780;29;20055;-87
2023/09/28 04:21:00;;;;;;;15.18;3.17;;;;;;;21.87;77.91;98191.53;4891550;29;20460;-88
2023/09/28 04:23:44;;;;;;;15.68;3.55;;;;;;;22.07;77.46;98206.47;4888185;29;20055;-86
2023/09/28 04:26:28;;;;;;;15.50;3.63;;;;;;;21.63;77.96;98210.31;4901315;29;20051;-85
2023/09/28 04:29:12;;;;;;;14.02;2.95;;;;;;;22.05;77.57;98215.88;4900452;29;20093;-86
2023/09/28 04:31:56;;;;;;;13.50;3.03;;;;;;;21.75;77.79;98217.91;4907843;29;20043;-84
2023/09/28 04:34:40;;;;;;;13.82;3.33;;;;;;;21.71;77.69;98225.69;4890422;29;20043;-86
2023/09/28 04:37:26;;;;;;;20.27;3.53;;;;;;;21.82;77.01;98213.81;4907898;29;20050;-87
2023/09/28 04:40:10;;;;;;;15.73;2.85;;;;;;;21.79;77.06;98209.00;4904916;29;20056;-87
2023/09/28 04:42:54;;;;;;;13.10;3.65;;;;;;;21.65;77.46;98210.84;4896196;29;20127;-87
2023/09/28 04:45:39;;;;;;;15.77;3.33;;;;;;;21.59;77.09;98210.06;4906927;29;20578;-87
2023/09/28 04:48:22;;;;;;;16.23;2.95;;;;;;;21.25;77.70;98227.84;4893207;29;20100;-89
2023/09/28 04:51:06;;;;;;;11.18;3.17;;;;;;;21.09;77.72;98223.75;4896265;29;20139;-85
2023/09/28 04:53:51;;;;;;;19.35;3.47;;;;;;;21.49;77.57;98253.72;4912585;29;20092;-86
2023/09/28 04:56:35;;;;;;;10.90;3.05;;;;;;;21.06;77.55;98240.34;4892696;29;20190;-85
2023/09/28 04:59:19;;;;;;;17.80;3.55;;;;;;;21.71;76.40;98256.94;4890070;29;20065;-86
2023/09/28 05:02:05;;;;;;;13.65;3.45;;;;;;;21.69;76.23;98234.00;4890613;29;20088;-85
2023/09/28 05:04:48;;;;;;;9.48;3.00;;;;;;;21.32;76.50;98248.06;4891140;29;20047;-86
2023/09/28 05:07:32;;;;;;;17.83;3.17;;;;;;;21.24;76.98;98255.63;4903727;29;20055;-84
2023/09/28 05:10:16;;;;;;;18.33;4.07;;;;;;;21.20;76.82;98259.91;4902902;29;20082;-86
2023/09/28 05:13:00;;;;;;;20.95;3.67;;;;;;;21.01;77.67;98269.72;4891220;29;20075;-86
2023/09/28 05:15:45;;;;;;;16.67;2.78;;;;;;;21.30;76.86;98292.91;4896137;29;20099;-86
2023/09/28 05:18:31;;;;;;;13.02;2.95;;;;;;;21.26;77.35;98296.16;4907865;29;20043;-85
2023/09/28 05:21:17;;;;;;;10.23;3.03;;;;;;;21.41;77.12;98310.41;4904623;29;20047;-87
2023/09/28 05:24:01;;;;;;;18.27;3.22;;;;;;;20.89;78.30;98305.59;4894180;29;20046;-85
2023/09/28 05:26:45;;;;;;;16.65;2.90;;;;;;;21.14;78.38;98316.31;4885044;29;20043;-85
2023/09/28 05:29:30;;;;;;;15.05;3.30;;;;;;;21.63;76.98;98319.78;4892242;29;20115;-87
2023/09/28 05:32:14;;;;;;;15.55;3.33;;;;;;;20.85;79.03;98323.25;4908921;29;20091;-85
2023/09/28 05:34:58;;;;;;;22.88;4.93;;;;;;;21.75;77.48;98324.75;4904910;29;20107;-85
2023/09/28 05:37:42;;;;;;;15.13;3.30;;;;;;;21.79;76.25;98315.84;4892136;29;20156;-87
2023/09/28 05:40:27;;;;;;;15.30;3.38;;;;;;;21.77;76.01;98334.06;4891922;29;20617;-84
2023/09/28 05:43:11;;;;;;;19.73;2.90;;;;;;;21.63;76.75;98341.16;4890152;29;20051;-85
2023/09/28 05:45:54;;;;;;;;;;;;;;;22.23;75.47;98339.91;4893223;29;20112;-87
2023/09/28 05:48:38;;;;;;;12.82;2.97;;;;;;;22.02;75.37;98340.19;4892305;29;20440;-85
2023/09/28 05:51:22;;;;;;;7.45;2.90;;;;;;;22.25;74.97;98332.38;4905739;29;20448;-86
2023/09/28 05:54:06;;;;;;;16.05;3.60;;;;;;;22.33;75.01;98345.09;4895436;29;20462;-86
2023/09/28 05:56:51;;;;;;;13.00;3.25;;;;;;;22.08;76.21;98339.00;4906767;29;20415;-86
2023/09/28 05:59:35;;;;;;;17.25;3.47;;;;;;;22.23;75.74;98355.94;4909894;29;20047;-85
2023/09/28 06:02:19;;;;;;;15.02;3.75;;;;;;;22.34;76.04;98353.91;4888536;29;20107;-86
2023/09/28 06:05:03;;;;;;;10.98;3.35;;;;;;;22.26;76.04;98371.38;4893752;29;20111;-87
2023/09/28 06:07:47;;;;;;;13.80;3.92;;;;;;;22.52;75.44;98377.22;4896108;29;20458;-87
2023/09/28 06:10:32;;;;;;;13.10;3.00;;;;;;;22.67;75.08;98386.88;4895791;29;20107;-87
2023/09/28 06:13:18;;;;;;;20.00;3.80;;;;;;;22.63;75.10;98395.75;4910553;29;20043;-85
2023/09/28 06:16:02;;;;;;;14.73;3.30;;;;;;;22.61;75.37;98396.06;4892846;29;20051;-84
2023/09/28 06:18:46;;;;;;;15.93;3.42;;;;;;;22.80;75.06;98397.94;4901730;29;20040;-84
2023/09/28 06:21:30;;;;;;;14.57;3.40;;;;;;;22.66;74.72;98392.50;4886275;29;20038;-84
2023/09/28 06:24:15;;;;;;;14.10;2.90;;;;;;;22.72;75.40;98401.25;4887204;29;20047;-84
2023/09/28 06:26:59;;;;;;;15.80;3.28;;;;;;;22.72;74.77;98396.72;4887041;29;20115;-82
2023/09/28 06:29:43;;;;;;;11.50;3.25;;;;;;;22.71;75.35;98389.78;4899986;29;20083;-83
2023/09/28 06:32:27;;;;;;;15.48;3.88;;;;;;;22.58;73.80;98407.31;4911805;29;20043;-85
2023/09/28 06:35:11;;;;;;;15.05;3.22;;;;;;;22.75;73.68;98398.00;4887715;29;20051;-84
2023/09/28 06:37:55;;;;;;;15.80;3.50;;;;;;;22.68;73.08;98415.22;4896055;29;20099;-83
2023/09/28 06:40:42;;;;;;;12.82;3.20;;;;;;;22.57;73.92;98413.75;4906380;29;20082;-83
2023/09/28 06:43:26;;;;;;;17.60;3.95;;;;;;;22.56;73.99;98422.09;4902409;29;20040;-85
2023/09/28 06:46:10;;;;;;;11.13;2.97;;;;;;;22.39;73.58;98418.00;4886496;29;20132;-86
2023/09/28 06:48:55;;;;;;;13.88;3.25;;;;;;;22.58;73.68;98417.25;4889446;29;20423;-83
2023/09/28 06:51:39;;;;;;;12.32;2.90;;;;;;;22.44;73.97;98419.81;4893202;29;20059;-85
2023/09/28 06:54:23;;;;;;;15.38;2.92;;;;;;;22.58;73.97;98439.41;4891792;29;20043;-83
2023/09/28 06:57:08;;;;;;;13.75;3.60;;;;;;;22.40;74.03;98433.75;4897205;29;20087;-81
2023/09/28 06:59:53;;;;;;;14.25;3.33;;;;;;;22.23;73.95;98438.78;4889067;29;20136;-84
2023/09/28 07:02:37;;;;;;;12.38;3.10;;;;;;;22.23;73.72;98425.44;4892319;29;20051;-85
2023/09/28 07:05:22;;;;;;;13.55;4.03;;;;;;;22.15;74.10;98426.06;4911442;29;20091;-84
2023/09/28 07:08:07;;;;;;;12.48;3.40;;;;;;;21.90;73.94;98414.59;4883902;29;20087;-85
2023/09/28 07:10:51;;;;;;;20.98;3.47;;;;;;;22.09;73.56;98415.44;4900849;29;20051;-85
2023/09/28 07:13:36;;;;;;;13.25;3.28;;;;;;;21.87;73.98;98423.19;4891894;29;20162;-84
2023/09/28 07:16:20;;;;;;;12.32;3.17;;;;;;;22.36;73.42;98440.75;4897995;29;20078;-83
2023/09/28 07:19:05;;;;;;;15.85;3.45;;;;;;;22.70;72.95;98432.84;4903167;29;20042;-85
2023/09/28 07:21:49;;;;;;;14.75;3.85;;;;;;;22.96;72.29;98436.72;4890298;29;20043;-84
2023/09/28 07:24:36;;;;;;;15.98;3.95;;;;;;;22.83;73.07;98442.84;4900374;29;20047;-83
2023/09/28 07:27:20;;;;;;;12.60;3.92;;;;;;;22.96;72.85;98452.78;4894658;29;20430;-85
2023/09/28 07:30:05;;;;;;;16.25;3.80;;;;;;;22.78;73.32;98448.25;4906368;29;20550;-83
2023/09/28 07:32:50;;;;;;;15.50;2.90;;;;;;;22.88;72.36;98458.81;4893538;29;20152;-84
2023/09/28 07:35:34;;;;;;;17.40;4.10;;;;;;;22.44;73.55;98446.56;4893413;29;20051;-86
2023/09/28 07:38:18;;;;;;;10.55;3.50;;;;;;;22.06;74.51;98472.13;4896252;29;20059;-84
2023/09/28 07:41:02;;;;;;;18.60;3.28;;;;;;;22.66;72.80;98470.06;4895177;29;20222;-84
2023/09/28 07:43:47;;;;;;;24.23;4.30;;;;;;;22.92;72.40;98475.88;4895549;29;20047;-83
2023/09/28 07:46:31;;;;;;;17.25;3.25;;;;;;;22.99;72.29;98482.72;4912228;29;20055;-83
2023/09/28 07:49:15;;;;;;;17.98;4.28;;;;;;;22.38;73.49;98483.25;4894245;29;20418;-84
2023/09/28 07:51:59;;;;;;;23.23;3.95;;;;;;;22.93;72.62;98485.47;4902564;29;20081;-82
2023/09/28 07:54:43;;;;;;;14.48;3.65;;;;;;;23.10;72.31;98500.22;4899940;29;20418;-83
2023/09/28 07:57:28;;;;;;;14.75;3.15;;;;;;;23.28;72.56;98511.25;4893103;29;20051;-85
2023/09/28 08:00:12;;;;;;;17.58;3.65;;;;;;;23.39;72.08;98505.44;4907264;29;20158;-84
2023/09/28 08:02:56;;;;;;;13.68;3.33;;;;;;;23.21;71.10;98501.69;4895534;29;20051;-84
2023/09/28 08:05:40;;;;;;;20.45;3.70;;;;;;;23.35;71.55;98511.66;4914191;29;20051;-84
2023/09/28 08:08:25;;;;;;;17.35;3.65;;;;;;;23.39;71.50;98491.25;4893295;29;20069;-85
2023/09/28 08:11:09;;;;;;;21.95;4.47;;;;;;;23.30;70.67;98501.84;4905465;29;20060;-85
2023/09/28 08:13:53;;;;;;;14.63;3.63;;;;;;;23.49;70.69;98515.19;4894516;29;20534;-84
2023/09/28 08:16:37;;;;;;;19.67;3.90;;;;;;;23.42;70.62;98522.81;4911493;29;20043;-86
2023/09/28 08:19:21;;;;;;;14.13;4.05;;;;;;;23.58;70.43;98519.84;4893017;29;20046;-86
2023/09/28 08:22:05;;;;;;;22.83;4.22;;;;;;;22.69;70.78;98504.25;4901508;29;20425;-85
2023/09/28 08:24:49;;;;;;;11.07;3.50;;;;;;;23.21;70.72;98533.81;4917406;29;20064;-84
2023/09/28 08:27:33;;;;;;;16.05;4.28;;;;;;;23.77;70.16;98535.88;4914357;29;20039;-86
2023/09/28 08:30:17;;;;;;;19.23;4.15;;;;;;;24.17;69.99;98524.72;4889567;29;20075;-84
2023/09/28 08:33:01;;;;;;;18.13;4.05;;;;;;;24.44;68.78;98536.56;4911690;29;20355;-85
2023/09/28 08:35:49;;;;;;;17.02;3.38;;;;;;;24.06;68.14;98553.63;4896194;29;20110;-84
2023/09/28 08:38:33;;;;;;;15.15;3.30;;;;;;;24.35;67.63;98569.44;4899306;29;20044;-84
2023/09/28 08:41:25;;;;;;;17.17;3.67;;;;;;;24.52;67.72;98570.72;4895961;29;20055;-85
2023/09/28 08:44:10;;;;;;;13.77;3.50;;;;;;;24.07;66.63;98561.38;4906489;29;20115;-85
2023/09/28 08:46:58;;;;;;;13.63;4.07;;;;;;;24.45;66.55;98586.44;4910655;29;20067;-86
2023/09/28 08:49:49;;;;;;;12.68;4.20;;;;;;;24.14;67.22;98573.59;4892512;29;20405;-85
2023/09/28 08:52:36;;;;;;;12.93;3.15;;;;;;;24.45;66.62;98573.81;4909636;29;20176;-86
2023/09/28 08:55:21;;;;;;;16.25;3.50;;;;;;;24.42;66.76;98552.16;4890214;29;20120;-85
2023/09/28 08:58:06;;;;;;;15.93;3.72;;;;;;;24.65;65.21;98556.53;4903158;29;20499;-85
2023/09/28 09:00:50;;;;;;;17.15;3.45;;;;;;;24.94;65.74;98563.44;4899948;29;20135;-86
2023/09/28 09:03:35;;;;;;;12.55;3.58;;;;;;;24.95;65.41;98559.66;4896330;29;20100;-82
2023/09/28 09:06:20;;;;;;;12.38;3.28;;;;;;;24.72;64.57;98584.84;4905272;29;20043;-82
2023/09/28 09:09:06;;;;;;;17.10;4.43;;;;;;;24.72;64.68;98582.16;4904223;29;20351;-83
2023/09/28 09:11:52;;;;;;;18.83;3.35;;;;;;;24.57;65.11;98600.16;4890697;29;20075;-81
2023/09/28 09:14:37;;;;;;;14.57;3.30;;;;;;;24.83;64.89;98596.19;4892448;29;20084;-82
2023/09/28 09:17:22;;;;;;;14.13;3.47;;;;;;;24.63;65.24;98600.84;4906130;29;20458;-82
2023/09/28 09:20:09;;;;;;;14.40;4.15;;;;;;;24.69;64.71;98586.25;4890179;29;20162;-82
2023/09/28 09:22:52;;;;;;;17.77;4.28;;;;;;;24.73;64.53;98589.09;4909012;29;20064;-82
2023/09/28 09:25:46;;;;;;;19.52;3.83;;;;;;;24.18;65.23;98594.16;4889446;29;20416;-82
2023/09/28 09:28:33;;;;;;;18.77;4.05;;;;;;;23.70;65.23;98586.38;4904231;29;20166;-80
2023/09/28 09:31:24;;;;;;;23.65;4.95;;;;;;;24.08;64.88;98592.47;4891865;29;20166;-81
2023/09/28 09:34:17;;;;;;;18.73;4.68;;;;;;;23.62;65.79;98574.47;4903307;29;20086;-79
2023/09/28 09:37:01;;;;;;;22.55;4.28;;;;;;;23.80;66.04;98575.50;4907209;29;20051;-80
2023/09/28 09:39:47;;;;;;;25.05;4.93;;;;;;;23.63;65.81;98570.69;4903721;29;20178;-82
2023/09/28 09:42:31;;;;;;;18.05;4.57;;;;;;;23.36;65.86;98564.94;4904558;29;20102;-83
2023/09/28 09:45:18;;;;;;;23.73;4.75;;;;;;;23.27;66.28;98606.81;4903176;29;20399;-83
2023/09/28 09:48:06;;;;;;;14.45;4.10;;;;;;;23.75;65.94;98592.44;4908651;29;20050;-81
2023/09/28 09:50:52;;;;;;;22.00;3.97;;;;;;;23.68;65.81;98600.88;4891810;29;20092;-82
2023/09/28 09:53:40;;;;;;;19.08;4.45;;;;;;;24.06;65.38;98621.44;4893480;29;20123;-82
2023/09/28 09:56:24;;;;;;;18.05;4.50;;;;;;;23.68;65.29;98616.16;4907444;29;20075;-81
2023/09/28 09:59:12;;;;;;;21.88;4.72;;;;;;;23.75;65.99;98584.41;4904069;29;20055;-82
2023/09/28 10:01:57;;;;;;;19.00;4.38;;;;;;;23.74;64.90;98577.44;4888045;29;20135;-82
2023/09/28 10:04:43;;;;;;;17.23;4.65;;;;;;;24.42;64.02;98579.00;4910105;29;20059;-81
2023/09/28 10:07:33;;;;;;;24.45;4.70;;;;;;;24.48;64.13;98551.78;4890967;29;20056;-82
2023/09/28 10:10:18;;;;;;;14.52;3.63;;;;;;;24.92;63.73;98560.28;4905497;29;20095;-81
2023/09/28 10:13:04;;;;;;;15.13;4.38;;;;;;;24.89;63.27;98550.16;4889845;29;20048;-82
2023/09/28 10:15:49;;;;;;;11.80;3.97;;;;;;;24.89;61.88;98576.22;4889974;29;20043;-81
2023/09/28 10:18:35;;;;;;;26.83;5.05;;;;;;;24.95;63.37;98613.34;4907897;29;20162;-82
2023/09/28 10:21:20;;;;;;;21.27;4.60;;;;;;;25.30;62.63;98598.66;4894743;29;20099;-83
2023/09/28 10:24:08;;;;;;;16.95;4.80;;;;;;;25.21;62.99;98614.69;4889875;29;20533;-82
2023/09/28 10:26:53;;;;;;;18.98;5.18;;;;;;;25.21;61.28;98588.66;4890200;29;20050;-82
2023/09/28 10:29:39;;;;;;;20.73;4.18;;;;;;;25.17;61.57;98562.69;4890278;29;20044;-82
2023/09/28 10:32:28;;;;;;;16.00;4.68;;;;;;;25.71;60.97;98592.34;4891656;29;20070;-84
2023/09/28 10:35:26;;;;;;;19.95;4.93;;;;;;;25.49;61.04;98582.44;4905998;29;20083;-82
2023/09/28 10:38:23;;;;;;;17.65;4.30;;;;;;;25.47;61.66;98606.09;4887992;29;20051;-82
2023/09/28 10:41:07;;;;;;;19.08;5.05;;;;;;;24.95;60.87;98591.88;4889779;29;20562;-82
2023/09/28 10:43:56;;;;;;;16.20;4.18;;;;;;;24.93;60.88;98591.38;4894580;29;20043;-82
2023/09/28 10:46:41;;;;;;;16.30;4.20;;;;;;;25.29;60.68;98610.50;4888118;29;20047;-81
2023/09/28 10:49:27;;;;;;;15.18;4.57;;;;;;;25.09;60.42;98642.09;4892897;29;20108;-82
2023/09/28 10:52:12;;;;;;;15.23;4.40;;;;;;;25.28;60.32;98630.41;4902106;29;20141;-82
2023/09/28 10:54:56;;;;;;;18.67;4.70;;;;;;;25.20;60.57;98630.03;4893691;29;20082;-81
2023/09/28 10:57:40;;;;;;;19.42;4.75;;;;;;;25.11;59.92;98653.31;4890950;29;20410;-82
2023/09/28 11:00:25;;;;;;;16.95;4.68;;;;;;;25.47;60.40;98652.56;4895632;29;20060;-81
2023/09/28 11:03:09;;;;;;;18.80;5.13;;;;;;;25.38;61.31;98665.13;4909314;29;20059;-82
2023/09/28 11:05:53;;;;;;;13.95;4.63;;;;;;;25.80;59.85;98662.31;4892856;29;20055;-82
2023/09/28 11:08:36;;;;;;;19.35;4.90;;;;;;;25.79;58.69;98671.47;4903610;29;20838;-81
2023/09/28 11:11:21;;;;;;;21.85;5.15;;;;;;;25.93;58.97;98661.47;4907443;29;20533;-81
2023/09/28 11:14:06;;;;;;;21.42;4.80;;;;;;;25.83;58.94;98666.28;4897846;29;20123;-81
2023/09/28 11:16:52;;;;;;;20.73;5.35;;;;;;;26.14;58.46;98654.75;4894111;29;20200;-81
2023/09/28 11:19:36;;;;;;;14.90;4.50;;;;;;;25.41;59.25;98661.00;4895007;29;20092;-80
2023/09/28 11:22:20;;;;;;;17.55;5.00;;;;;;;25.41;59.12;98661.81;4891902;29;20060;-83
2023/09/28 11:25:06;;;;;;;26.50;5.55;;;;;;;25.23;58.73;98645.53;4899435;29;20470;-82
2023/09/28 11:27:50;;;;;;;16.60;4.80;;;;;;;25.15;59.95;98627.44;4899693;29;20043;-82
2023/09/28 11:30:36;;;;;;;20.10;4.30;;;;;;;25.38;59.39;98640.94;4895359;29;20521;-82
2023/09/28 11:33:20;;;;;;;17.67;4.45;;;;;;;24.97;60.61;98629.19;4905812;29;20112;-82
2023/09/28 11:36:11;;;;;;;25.77;6.45;;;;;;;24.66;60.42;98638.59;4908770;29;20146;-82
2023/09/28 11:38:56;;;;;;;18.80;5.75;;;;;;;24.66;60.64;98654.72;4897479;29;20082;-82
2023/09/28 11:41:58;;;;;;;23.10;4.65;;;;;;;25.05;60.27;98657.22;4902346;29;20039;-81
2023/09/28 11:44:43;;;;;;;12.90;4.63;;;;;;;25.27;59.84;98656.50;4894109;29;20043;-82
2023/09/28 11:47:26;;;;;;;17.40;4.72;;;;;;;25.43;59.05;98635.44;4910222;29;20062;-81
2023/09/28 11:50:10;;;;;;;18.98;5.20;;;;;;;25.01;59.34;98615.97;4906260;29;20102;-81
2023/09/28 11:52:55;;;;;;;16.77;4.78;;;;;;;25.70;59.05;98625.72;4894795;29;20092;-81
2023/09/28 11:55:39;;;;;;;16.00;4.75;;;;;;;25.65;59.15;98625.84;4907597;29;20047;-82
2023/09/28 11:58:24;;;;;;;19.05;5.57;;;;;;;25.88;58.32;98598.94;4892960;29;20119;-82
2023/09/28 12:01:10;;;;;;;19.13;5.47;;;;;;;26.14;58.14;98625.19;4909150;29;20055;-81
2023/09/28 12:03:54;;;;;;;15.73;5.15;;;;;;;26.03;57.38;98612.00;4892791;29;20485;-81
2023/09/28 12:06:40;;;;;;;16.45;5.68;;;;;;;26.02;57.33;98583.53;4906888;29;20059;-81
2023/09/28 12:09:24;;;;;;;13.93;5.05;;;;;;;26.15;57.31;98495.00;4904412;29;20074;-82
2023/09/28 12:12:09;;;;;;;17.73;4.88;;;;;;;26.40;56.94;98527.69;4905739;29;20100;-81
2023/09/28 12:14:53;;;;;;;19.52;6.28;;;;;;;26.26;57.93;98603.13;4890407;29;20071;-81
2023/09/28 12:17:38;;;;;;;16.50;5.03;;;;;;;26.55;58.14;98591.84;4905827;29;20407;-81
2023/09/28 12:20:22;;;;;;;16.20;5.90;;;;;;;26.57;57.49;98553.84;4898073;29;20044;-84
2023/09/28 12:23:06;;;;;;;22.73;5.53;;;;;;;26.56;56.68;98609.59;4910989;29;20405;-85
2023/09/28 12:25:51;;;;;;;15.93;4.93;;;;;;;26.72;57.13;98563.38;4905970;29;20059;-85
2023/09/28 12:28:37;;;;;;;18.45;5.57;;;;;;;26.38;57.77;98590.69;4903520;29;20457;-85
2023/09/28 12:31:23;;;;;;;15.63;5.28;;;;;;;26.89;57.61;98562.66;4892931;29;20401;-85
2023/09/28 12:34:07;;;;;;;19.42;5.72;;;;;;;27.29;56.99;98577.88;4894723;29;20180;-85
2023/09/28 12:36:51;;;;;;;22.92;5.90;;;;;;;27.46;56.49;98556.28;4893244;29;20159;-84
2023/09/28 12:39:35;;;;;;;20.90;5.80;;;;;;;27.30;55.39;98579.44;4885155;29;20570;-84
2023/09/28 12:42:24;;;;;;;19.83;6.05;;;;;;;27.12;55.54;98602.91;4891014;29;20043;-85
2023/09/28 12:45:09;;;;;;;19.33;5.22;;;;;;;26.71;57.17;98602.16;4907957;29;20051;-84
2023/09/28 12:47:53;;;;;;;19.30;5.95;;;;;;;27.11;56.68;98609.41;4895592;29;20064;-84
2023/09/28 12:50:38;;;;;;;14.48;5.35;;;;;;;26.97;56.69;98633.78;4895513;29;20140;-85